This is the latest recevied weather packets stored in our database for station/object OE5RBO. If no packets are shown the sender has not sent any weather packets the latest 10 day(s).
| Time | Temp. | Humidity | Pressure | Rain* | Wind** | Luminosity | Snow |
|---|---|---|---|---|---|---|---|
| 1777709158 | 21.11° C | 46% | 1022.4 hPa | 0 mm | - | - | - |
| 1777708558 | 22.22° C | 47% | 1022.4 hPa | 0 mm | - | - | - |
| 1777707958 | 22.22° C | 49% | 1022.5 hPa | 0 mm | - | - | - |
| 1777707357 | 20.56° C | 52% | 1022.4 hPa | 0 mm | - | - | - |
| 1777706757 | 20.56° C | 56% | 1022.6 hPa | 0 mm | - | - | - |
| 1777705556 | 18.33° C | 62% | 1022.6 hPa | 0 mm | - | - | - |
| 1777704956 | 17.22° C | 64% | 1022.6 hPa | 0 mm | - | - | - |
| 1777703755 | 15.56° C | 69% | 1022.6 hPa | 0 mm | - | - | - |
| 1777703155 | 15.56° C | 67% | 1022.7 hPa | 0 mm | - | - | - |
| 1777702554 | 15.56° C | 69% | 1022.7 hPa | 0 mm | - | - | - |
| 1777701954 | 14.44° C | 71% | 1022.7 hPa | 0 mm | - | - | - |
| 1777701353 | 14.44° C | 73% | 1022.7 hPa | 0 mm | - | - | - |
| 1777700753 | 13.33° C | 75% | 1022.8 hPa | 0 mm | - | - | - |
| 1777700153 | 12.78° C | 80% | 1022.8 hPa | 0 mm | - | - | - |
| 1777699552 | 11.11° C | 86% | 1022.8 hPa | 0 mm | - | - | - |
| 1777697751 | 6.11° C | 96% | 1022.8 hPa | 0 mm | - | - | - |
| 1777697151 | 5.56° C | 96% | 1022.7 hPa | 0 mm | - | - | - |
| 1777696551 | 5° C | 96% | 1022.8 hPa | 0 mm | - | - | - |
| 1777695950 | 5° C | 96% | 1022.8 hPa | 0 mm | - | - | - |
| 1777695350 | 5.56° C | 96% | 1022.6 hPa | 0 mm | - | - | - |
| 1777694750 | 6.11° C | 95% | 1022.7 hPa | 0 mm | - | - | - |
| 1777694149 | 5.56° C | 96% | 1022.7 hPa | 0 mm | - | - | - |
| 1777693549 | 5.56° C | 96% | 1022.7 hPa | 0 mm | - | - | - |
| 1777692948 | 5.56° C | 95% | 1022.7 hPa | 0 mm | - | - | - |
| 1777692348 | 6.11° C | 94% | 1022.8 hPa | 0 mm | - | - | - |
* Rain since midnight (hover to see other rain measurements)
** Current wind speed in m/s (hover to see current wind gust speed)